Time;durP1;ratioP1;P1;durP2;ratioP2;P2;SDS_P1;SDS_P2;PMS_P1;PMS_P2;Temp;Humidity;BMP_temperature;BMP_pressure;BME280_temperature;BME280_humidity;BME280_pressure;Samples;Min_cycle;Max_cycle;Signal;HPM_P1;HPM_P2
2022/12/14 00:00:54;;;;;;;19.27;10.37;;;;;;;;;;5076546;28;20656;-75
2022/12/14 00:03:58;;;;;;;15.73;10.43;;;;;;;;;;5063684;28;20616;-75
2022/12/14 00:07:02;;;;;;;17.10;10.47;;;;;;;;;;5075801;28;20614;-75
2022/12/14 00:10:07;;;;;;;19.80;10.80;;;;;;;;;;5075858;28;20609;-75
2022/12/14 00:13:15;;;;;;;17.20;9.93;;;;;;;;;;5075772;28;21213;-75
2022/12/14 00:16:21;;;;;;;17.47;9.50;;;;;;;;;;5077083;28;20610;-75
2022/12/14 00:19:25;;;;;;;19.23;10.80;;;;;;;;;;5064020;28;20609;-75
2022/12/14 00:22:29;;;;;;;17.97;10.93;;;;;;;;;;5063656;28;20625;-75
2022/12/14 00:25:33;;;;;;;17.23;9.90;;;;;;;;;;5075850;28;20553;-75
2022/12/14 00:28:38;;;;;;;17.20;10.53;;;;;;;;;;5076103;28;20538;-75
2022/12/14 00:31:42;;;;;;;16.83;10.00;;;;;;;;;;5079653;28;20624;-75
2022/12/14 00:34:46;;;;;;;22.70;10.73;;;;;;;;;;5079401;28;20553;-75
2022/12/14 00:37:50;;;;;;;15.70;9.53;;;;;;;;;;5067634;28;21208;-75
2022/12/14 00:40:54;;;;;;;15.93;9.57;;;;;;;;;;5079457;28;20594;-75
2022/12/14 00:43:58;;;;;;;18.67;10.57;;;;;;;;;;5079649;28;20545;-75
2022/12/14 00:47:02;;;;;;;18.83;9.80;;;;;;;;;;5079253;28;20620;-75
2022/12/14 00:50:07;;;;;;;17.37;9.93;;;;;;;;;;5079247;28;20561;-75
2022/12/14 00:53:11;;;;;;;15.47;9.33;;;;;;;;;;5079570;28;20609;-75
2022/12/14 00:56:15;;;;;;;20.50;10.67;;;;;;;;;;5079010;28;20546;-75
2022/12/14 00:59:19;;;;;;;17.23;10.27;;;;;;;;;;5079790;28;20557;-75
2022/12/14 01:02:23;;;;;;;16.33;9.63;;;;;;;;;;5079418;28;20632;-75
2022/12/14 01:05:28;;;;;;;21.60;10.43;;;;;;;;;;5079233;28;20553;-75
2022/12/14 01:08:35;;;;;;;17.00;9.60;;;;;;;;;;5079299;28;20553;-75
2022/12/14 01:11:40;;;;;;;16.27;9.30;;;;;;;;;;5078959;28;20997;-75
2022/12/14 01:14:45;;;;;;;18.83;10.23;;;;;;;;;;5078691;28;20597;-76
2022/12/14 01:17:52;;;;;;;16.43;9.90;;;;;;;;;;5066591;28;20542;-75
2022/12/14 01:21:25;;;;;;;17.93;11.00;;;;;;;;;;5079270;28;20641;-75
2022/12/14 01:24:32;;;;;;;14.50;9.37;;;;;;;;;;5080284;28;20549;-75
2022/12/14 01:27:36;;;;;;;16.70;10.03;;;;;;;;;;5079303;28;20614;-75
2022/12/14 01:30:40;;;;;;;16.33;10.17;;;;;;;;;;5078488;28;20909;-75
2022/12/14 01:33:45;;;;;;;21.07;10.40;;;;;;;;;;5078422;28;20908;-75
2022/12/14 01:36:49;;;;;;;15.70;9.50;;;;;;;;;;5066066;28;21186;-75
2022/12/14 01:39:53;;;;;;;15.67;9.90;;;;;;;;;;5078052;28;20542;-75
2022/12/14 01:42:58;;;;;;;15.73;9.83;;;;;;;;;;5078309;28;20624;-75
2022/12/14 01:46:02;;;;;;;13.63;8.93;;;;;;;;;;5078671;28;20605;-75
2022/12/14 01:49:31;;;;;;;16.47;9.87;;;;;;;;;;5066845;28;20597;-75
2022/12/14 01:52:39;;;;;;;15.27;9.67;;;;;;;;;;5066525;28;20640;-75
2022/12/14 01:55:50;;;;;;;18.17;10.20;;;;;;;;;;5078398;28;20563;-75
2022/12/14 01:58:58;;;;;;;18.37;9.93;;;;;;;;;;5077893;28;20557;-75
2022/12/14 02:02:05;;;;;;;14.63;9.20;;;;;;;;;;5078231;28;20657;-75
2022/12/14 02:05:11;;;;;;;15.37;10.23;;;;;;;;;;5078002;28;21166;-75
2022/12/14 02:08:16;;;;;;;15.07;9.90;;;;;;;;;;5078417;28;21084;-75
2022/12/14 02:11:39;;;;;;;16.47;9.27;;;;;;;;;;5065550;28;20630;-75
2022/12/14 02:14:45;;;;;;;16.30;10.00;;;;;;;;;;5077665;28;20606;-75
2022/12/14 02:17:49;;;;;;;15.93;9.47;;;;;;;;;;5065385;28;20557;-75
2022/12/14 02:21:14;;;;;;;16.83;10.47;;;;;;;;;;5077783;28;20594;-75
2022/12/14 02:25:10;;;;;;;16.87;9.87;;;;;;;;;;5077983;28;20885;-75
2022/12/14 02:28:36;;;;;;;14.90;8.70;;;;;;;;;;5059580;28;20609;-75
2022/12/14 02:31:52;;;;;;;17.47;9.93;;;;;;;;;;5077731;28;21179;-75
2022/12/14 02:35:17;;;;;;;17.57;10.30;;;;;;;;;;5065255;28;20546;-75
2022/12/14 02:38:26;;;;;;;16.43;10.03;;;;;;;;;;5061738;28;20617;-76
2022/12/14 02:42:03;;;;;;;22.57;11.03;;;;;;;;;;5076849;28;20672;-75
2022/12/14 02:45:28;;;;;;;21.53;10.80;;;;;;;;;;5077355;28;20900;-75
2022/12/14 02:48:40;;;;;;;16.43;9.33;;;;;;;;;;5077356;28;20554;-75
2022/12/14 02:51:55;;;;;;;14.73;9.47;;;;;;;;;;5076989;28;20633;-77
2022/12/14 02:55:09;;;;;;;16.93;9.77;;;;;;;;;;5077034;28;20609;-75
2022/12/14 02:58:19;;;;;;;18.23;10.47;;;;;;;;;;5077048;28;20543;-75
2022/12/14 03:01:27;;;;;;;17.90;10.20;;;;;;;;;;5076616;28;20668;-75
2022/12/14 03:04:31;;;;;;;17.00;9.33;;;;;;;;;;5064282;28;21114;-75
2022/12/14 03:07:52;;;;;;;16.33;10.03;;;;;;;;;;5077126;28;20544;-75
2022/12/14 03:11:05;;;;;;;17.07;10.47;;;;;;;;;;5077072;28;20542;-75
2022/12/14 03:14:30;;;;;;;17.83;10.17;;;;;;;;;;5064502;28;20549;-75
2022/12/14 03:17:37;;;;;;;16.33;9.87;;;;;;;;;;5076878;28;20553;-75
2022/12/14 03:20:46;;;;;;;19.10;9.93;;;;;;;;;;5064258;28;20613;-75
2022/12/14 03:23:51;;;;;;;17.83;9.90;;;;;;;;;;5076792;28;20542;-75
2022/12/14 03:27:00;;;;;;;19.10;11.10;;;;;;;;;;5076213;28;21092;-75
2022/12/14 03:30:06;;;;;;;18.80;10.20;;;;;;;;;;5076862;28;20553;-75
2022/12/14 03:33:15;;;;;;;16.90;9.67;;;;;;;;;;5077025;28;21075;-75
2022/12/14 03:36:31;;;;;;;19.53;10.50;;;;;;;;;;5076763;28;20550;-75
2022/12/14 03:39:38;;;;;;;17.37;9.43;;;;;;;;;;5076907;28;20542;-75
2022/12/14 03:43:04;;;;;;;19.23;10.37;;;;;;;;;;5075787;28;20661;-75
2022/12/14 03:46:17;;;;;;;20.87;10.77;;;;;;;;;;5076568;28;20553;-75
2022/12/14 03:50:00;;;;;;;17.60;10.70;;;;;;;;;;5063248;28;20569;-75
2022/12/14 03:53:37;;;;;;;18.37;10.80;;;;;;;;;;5073167;28;20632;-75
2022/12/14 03:56:49;;;;;;;16.37;10.53;;;;;;;;;;5060903;28;20553;-75
2022/12/14 04:00:03;;;;;;;18.80;10.97;;;;;;;;;;5060959;28;20613;-75
2022/12/14 04:03:30;;;;;;;16.53;9.70;;;;;;;;;;5062142;28;20542;-75
2022/12/14 04:06:42;;;;;;;19.70;10.77;;;;;;;;;;5065392;28;20534;-75
2022/12/14 04:18:55;;;;;;;17.57;10.57;;;;;;;;;;5053303;28;20600;-75
2022/12/14 04:20:35;;;;;;;18.03;10.97;;;;;;;;;;5044601;28;20563;-75
2022/12/14 04:27:37;;;;;;;20.97;11.73;;;;;;;;;;5025103;28;21112;-76
2022/12/14 04:30:41;;;;;;;21.97;12.13;;;;;;;;;;5036698;28;20551;-75
2022/12/14 04:33:51;;;;;;;22.17;12.60;;;;;;;;;;5025120;28;20906;-75
2022/12/14 04:36:59;;;;;;;21.27;12.73;;;;;;;;;;5036122;28;21101;-75
2022/12/14 04:40:28;;;;;;;22.43;13.27;;;;;;;;;;5024376;28;20610;-75
2022/12/14 04:43:37;;;;;;;23.23;12.50;;;;;;;;;;5036753;28;20606;-76
2022/12/14 04:46:43;;;;;;;18.73;11.20;;;;;;;;;;5036776;28;20551;-76
2022/12/14 04:49:48;;;;;;;20.80;11.67;;;;;;;;;;5036528;28;20547;-75
2022/12/14 04:53:16;;;;;;;22.37;12.50;;;;;;;;;;5024444;28;20618;-75
2022/12/14 04:56:38;;;;;;;20.07;12.20;;;;;;;;;;5024390;28;20555;-76
2022/12/14 04:59:43;;;;;;;20.03;11.33;;;;;;;;;;5035940;28;20551;-75
2022/12/14 05:02:59;;;;;;;21.33;12.20;;;;;;;;;;5035895;28;20666;-75
2022/12/14 05:06:15;;;;;;;19.97;11.83;;;;;;;;;;5024079;28;20911;-76
2022/12/14 05:09:33;;;;;;;21.57;12.50;;;;;;;;;;5036374;28;20539;-76
2022/12/14 05:12:49;;;;;;;22.03;12.60;;;;;;;;;;5035860;28;20638;-76
2022/12/14 05:15:55;;;;;;;20.00;12.60;;;;;;;;;;5012588;28;20547;-75
2022/12/14 05:18:59;;;;;;;20.27;12.37;;;;;;;;;;5024120;28;20942;-75
2022/12/14 05:22:05;;;;;;;20.80;12.17;;;;;;;;;;5035911;28;20669;-76
2022/12/14 05:25:10;;;;;;;21.27;11.97;;;;;;;;;;5035947;28;20610;-75
2022/12/14 05:28:14;;;;;;;23.00;12.20;;;;;;;;;;5035946;28;21116;-75
2022/12/14 05:31:19;;;;;;;20.73;12.07;;;;;;;;;;5035930;28;20641;-76
2022/12/14 05:34:23;;;;;;;20.30;12.03;;;;;;;;;;5012494;28;20922;-75
2022/12/14 05:37:27;;;;;;;21.23;12.20;;;;;;;;;;5035734;28;20543;-75
2022/12/14 05:40:31;;;;;;;20.47;12.30;;;;;;;;;;5012278;28;20547;-75
2022/12/14 05:43:36;;;;;;;20.70;11.67;;;;;;;;;;5035355;28;20544;-75
2022/12/14 05:46:40;;;;;;;21.37;12.90;;;;;;;;;;5034804;28;20553;-75
2022/12/14 05:49:44;;;;;;;24.03;11.30;;;;;;;;;;5011981;28;20562;-75
2022/12/14 05:52:50;;;;;;;20.10;11.77;;;;;;;;;;5011690;28;20659;-75
2022/12/14 05:55:54;;;;;;;20.17;12.10;;;;;;;;;;5035102;28;20610;-76
2022/12/14 05:58:59;;;;;;;21.57;12.37;;;;;;;;;;5035302;28;20556;-75
2022/12/14 06:02:04;;;;;;;19.57;11.53;;;;;;;;;;5022853;28;20661;-75
2022/12/14 06:05:08;;;;;;;19.37;12.17;;;;;;;;;;5035227;28;20622;-75
2022/12/14 06:08:12;;;;;;;19.93;12.10;;;;;;;;;;5034932;28;20547;-75
2022/12/14 06:11:19;;;;;;;19.67;11.67;;;;;;;;;;5022900;28;20957;-76
2022/12/14 06:14:24;;;;;;;18.07;11.30;;;;;;;;;;5022621;28;20610;-75
2022/12/14 06:17:28;;;;;;;19.60;12.07;;;;;;;;;;5011507;28;20542;-75
2022/12/14 06:20:32;;;;;;;20.97;11.67;;;;;;;;;;5022325;28;20607;-75
2022/12/14 06:23:36;;;;;;;23.47;13.20;;;;;;;;;;5022648;28;21172;-75
2022/12/14 06:26:40;;;;;;;23.37;12.83;;;;;;;;;;5034996;28;20547;-75
2022/12/14 06:29:44;;;;;;;21.33;12.77;;;;;;;;;;5034570;28;20543;-75
2022/12/14 06:32:49;;;;;;;20.67;12.13;;;;;;;;;;5035502;28;20622;-75
2022/12/14 06:35:53;;;;;;;25.20;12.50;;;;;;;;;;5033827;28;21113;-75
2022/12/14 06:39:04;;;;;;;20.67;12.43;;;;;;;;;;5011178;28;20556;-74
2022/12/14 06:42:08;;;;;;;21.27;12.60;;;;;;;;;;5010854;28;20658;-75
2022/12/14 06:45:12;;;;;;;19.83;12.30;;;;;;;;;;5033866;28;20899;-75
2022/12/14 06:48:16;;;;;;;24.07;13.30;;;;;;;;;;5000016;28;20547;-75
2022/12/14 06:51:21;;;;;;;22.30;13.07;;;;;;;;;;5033940;28;20630;-74
2022/12/14 06:54:26;;;;;;;20.97;12.30;;;;;;;;;;5033970;28;20547;-75
2022/12/14 06:57:30;;;;;;;19.47;12.70;;;;;;;;;;5022033;28;20551;-74
2022/12/14 07:00:34;;;;;;;21.67;12.10;;;;;;;;;;5033884;28;20899;-75
2022/12/14 07:03:39;;;;;;;21.87;12.90;;;;;;;;;;5034243;28;20618;-75
2022/12/14 07:06:44;;;;;;;20.77;12.00;;;;;;;;;;5033307;28;21101;-75
2022/12/14 07:09:48;;;;;;;23.47;13.40;;;;;;;;;;5021680;28;20551;-75
2022/12/14 07:12:52;;;;;;;25.57;13.63;;;;;;;;;;5021389;28;20666;-75
2022/12/14 07:15:58;;;;;;;22.40;14.33;;;;;;;;;;5033931;28;20556;-75
2022/12/14 07:19:02;;;;;;;24.43;13.13;;;;;;;;;;5021767;28;21113;-75
2022/12/14 07:22:06;;;;;;;20.73;12.80;;;;;;;;;;5033911;28;20666;-75
2022/12/14 07:25:11;;;;;;;20.63;12.63;;;;;;;;;;5034029;28;20610;-75
2022/12/14 07:28:15;;;;;;;23.03;14.23;;;;;;;;;;5010131;28;20559;-76
2022/12/14 07:31:24;;;;;;;24.70;13.53;;;;;;;;;;5021322;28;20630;-75
2022/12/14 07:34:28;;;;;;;21.53;12.40;;;;;;;;;;5033515;28;20547;-75
2022/12/14 07:37:32;;;;;;;22.03;13.17;;;;;;;;;;5033292;28;20547;-75
2022/12/14 07:40:36;;;;;;;22.17;12.33;;;;;;;;;;5032663;28;20547;-76
2022/12/14 07:43:42;;;;;;;21.70;12.87;;;;;;;;;;5009681;28;20658;-75
2022/12/14 07:46:46;;;;;;;20.87;12.37;;;;;;;;;;5021282;28;20555;-75
2022/12/14 07:49:50;;;;;;;19.87;12.43;;;;;;;;;;5033465;28;21117;-75
2022/12/14 07:52:54;;;;;;;21.63;13.43;;;;;;;;;;5021174;28;20622;-75
2022/12/14 07:56:01;;;;;;;21.30;12.37;;;;;;;;;;5033541;28;20547;-75
2022/12/14 07:59:07;;;;;;;23.33;13.53;;;;;;;;;;5033320;28;20631;-75
2022/12/14 08:02:11;;;;;;;19.07;12.17;;;;;;;;;;5020663;28;21001;-75
2022/12/14 08:05:15;;;;;;;21.20;13.13;;;;;;;;;;5009648;28;21199;-75
2022/12/14 08:08:20;;;;;;;20.80;12.07;;;;;;;;;;5033471;28;20535;-75
2022/12/14 08:11:24;;;;;;;20.60;12.20;;;;;;;;;;4998744;28;21219;-75
2022/12/14 08:14:28;;;;;;;22.70;13.37;;;;;;;;;;5020849;28;20614;-75
2022/12/14 08:17:32;;;;;;;20.43;11.97;;;;;;;;;;5021287;28;20602;-76
2022/12/14 08:20:36;;;;;;;46.60;23.07;;;;;;;;;;5032824;28;20610;-75
2022/12/14 08:23:40;;;;;;;25.10;13.13;;;;;;;;;;5009615;28;20606;-75
2022/12/14 08:26:45;;;;;;;21.70;12.53;;;;;;;;;;5020667;28;20547;-75
2022/12/14 08:29:49;;;;;;;23.33;12.90;;;;;;;;;;5032202;28;20547;-76
2022/12/14 08:32:54;;;;;;;20.67;11.90;;;;;;;;;;5020812;28;20625;-76
2022/12/14 08:36:10;;;;;;;21.70;12.53;;;;;;;;;;5009341;28;20575;-75
2022/12/14 08:39:14;;;;;;;20.87;12.77;;;;;;;;;;5020807;28;20623;-75
2022/12/14 08:42:18;;;;;;;21.73;12.63;;;;;;;;;;5032785;28;20689;-76
2022/12/14 08:45:23;;;;;;;24.37;14.90;;;;;;;;;;5009695;28;20547;-75
2022/12/14 08:48:27;;;;;;;27.83;14.23;;;;;;;;;;5033153;28;20543;-74
2022/12/14 08:51:34;;;;;;;21.60;13.40;;;;;;;;;;5033519;28;20633;-75
2022/12/14 08:54:38;;;;;;;19.97;12.27;;;;;;;;;;5013253;28;20566;-75
2022/12/14 08:57:43;;;;;;;23.70;12.97;;;;;;;;;;5024166;28;20566;-75
2022/12/14 09:00:47;;;;;;;20.63;11.83;;;;;;;;;;5035548;28;20551;-75
2022/12/14 09:03:51;;;;;;;19.70;12.53;;;;;;;;;;5024129;28;20602;-74
2022/12/14 09:06:56;;;;;;;21.73;12.30;;;;;;;;;;5035801;28;20958;-75
2022/12/14 09:10:00;;;;;;;20.60;12.30;;;;;;;;;;5024576;28;20602;-75
2022/12/14 09:13:03;;;;;;;20.37;12.37;;;;;;;;;;5035905;28;20641;-75
2022/12/14 09:16:14;;;;;;;18.73;12.40;;;;;;;;;;5024266;28;20539;-75
2022/12/14 09:19:18;;;;;;;19.27;12.13;;;;;;;;;;5023913;28;20692;-75
2022/12/14 09:22:23;;;;;;;20.60;11.57;;;;;;;;;;5023467;28;20646;-75
2022/12/14 09:25:26;;;;;;;19.40;12.43;;;;;;;;;;5012492;28;20547;-75
2022/12/14 09:28:33;;;;;;;22.37;12.30;;;;;;;;;;5023593;28;20558;-75
2022/12/14 09:31:37;;;;;;;18.87;12.07;;;;;;;;;;5023564;28;20626;-75
2022/12/14 09:34:41;;;;;;;18.53;12.00;;;;;;;;;;5023334;28;20609;-75
2022/12/14 09:37:45;;;;;;;19.77;12.77;;;;;;;;;;5012261;28;20547;-75
2022/12/14 09:40:55;;;;;;;19.47;11.73;;;;;;;;;;5035646;28;20546;-75
2022/12/14 09:44:23;;;;;;;21.33;12.07;;;;;;;;;;5011813;28;20650;-76
2022/12/14 09:47:36;;;;;;;20.50;12.60;;;;;;;;;;5012241;28;20899;-76
2022/12/14 09:50:40;;;;;;;21.63;12.47;;;;;;;;;;5023233;28;21125;-76
2022/12/14 09:53:46;;;;;;;17.17;10.73;;;;;;;;;;5035007;28;20891;-76
2022/12/14 09:56:53;;;;;;;19.83;12.93;;;;;;;;;;5034670;28;20539;-76
2022/12/14 09:59:57;;;;;;;18.73;12.00;;;;;;;;;;5034433;28;20631;-75
2022/12/14 10:03:32;;;;;;;20.60;12.37;;;;;;;;;;5011245;28;20654;-75
2022/12/14 10:07:09;;;;;;;18.67;11.70;;;;;;;;;;5023018;28;20551;-75
2022/12/14 10:10:35;;;;;;;22.70;11.60;;;;;;;;;;5022983;28;20551;-75
2022/12/14 10:14:04;;;;;;;20.20;12.33;;;;;;;;;;5011490;28;20626;-75
2022/12/14 10:17:45;;;;;;;21.87;11.97;;;;;;;;;;5039222;22;20771;-74
2022/12/14 10:21:01;;;;;;;21.30;12.53;;;;;;;;;;5030587;28;20637;-75
2022/12/14 10:24:12;;;;;;;19.33;11.90;;;;;;;;;;5057524;28;20657;-74
2022/12/14 10:27:23;;;;;;;23.87;12.73;;;;;;;;;;5050794;28;20624;-74
2022/12/14 10:30:28;;;;;;;24.67;13.33;;;;;;;;;;5067234;28;20628;-74
2022/12/14 10:33:32;;;;;;;24.50;13.50;;;;;;;;;;5054407;28;20612;-74
2022/12/14 10:36:53;;;;;;;21.37;12.03;;;;;;;;;;5050098;28;20589;-75
2022/12/14 10:40:13;;;;;;;21.93;12.93;;;;;;;;;;5059421;28;21209;-76
2022/12/14 10:43:36;;;;;;;20.17;12.13;;;;;;;;;;5061589;28;20629;-75
2022/12/14 10:47:07;;;;;;;22.97;13.97;;;;;;;;;;5065275;28;20589;-75
2022/12/14 10:50:13;;;;;;;22.30;13.57;;;;;;;;;;5068751;28;20940;-75
2022/12/14 10:53:26;;;;;;;19.20;12.27;;;;;;;;;;5054866;28;20606;-75
2022/12/14 10:56:33;;;;;;;20.67;12.70;;;;;;;;;;5058174;28;20593;-76
2022/12/14 10:59:37;;;;;;;23.37;12.93;;;;;;;;;;5041696;28;20921;-75
2022/12/14 11:02:44;;;;;;;21.27;13.27;;;;;;;;;;5072577;28;20640;-75
2022/12/14 11:05:48;;;;;;;20.87;12.90;;;;;;;;;;5073250;28;20541;-75
2022/12/14 11:08:52;;;;;;;21.73;12.30;;;;;;;;;;5073980;28;20541;-75
2022/12/14 11:12:06;;;;;;;22.97;14.23;;;;;;;;;;5073605;28;20988;-75
2022/12/14 11:15:24;;;;;;;20.30;13.17;;;;;;;;;;5072966;28;20542;-75
2022/12/14 11:18:29;;;;;;;29.43;14.07;;;;;;;;;;5073779;28;20616;-75
2022/12/14 11:21:37;;;;;;;19.80;13.17;;;;;;;;;;5072668;28;21000;-75
2022/12/14 11:24:47;;;;;;;20.40;12.40;;;;;;;;;;5073728;28;20600;-75
2022/12/14 11:27:52;;;;;;;21.07;12.97;;;;;;;;;;5073668;28;20620;-76
2022/12/14 11:31:02;;;;;;;19.47;13.20;;;;;;;;;;5073786;28;20897;-75
2022/12/14 11:34:20;;;;;;;20.50;13.63;;;;;;;;;;5073952;28;20553;-75
2022/12/14 11:37:30;;;;;;;23.60;14.03;;;;;;;;;;5073212;28;21106;-75
2022/12/14 11:40:36;;;;;;;20.80;13.43;;;;;;;;;;5073535;28;20613;-75
2022/12/14 11:43:40;;;;;;;19.47;13.60;;;;;;;;;;5072419;28;20597;-76
2022/12/14 11:47:00;;;;;;;23.47;13.63;;;;;;;;;;5073134;28;21087;-75
2022/12/14 11:50:22;;;;;;;21.13;13.30;;;;;;;;;;5072575;28;20565;-76
2022/12/14 11:53:26;;;;;;;23.23;14.50;;;;;;;;;;5072692;28;20546;-75
2022/12/14 11:56:31;;;;;;;28.43;15.03;;;;;;;;;;5072786;28;20546;-75
2022/12/14 11:59:37;;;;;;;23.77;13.87;;;;;;;;;;5073767;28;20561;-75
2022/12/14 12:02:49;;;;;;;20.47;13.37;;;;;;;;;;5073050;28;20628;-75
2022/12/14 12:05:58;;;;;;;20.67;13.00;;;;;;;;;;5073086;28;20597;-76
2022/12/14 12:09:39;;;;;;;24.67;15.07;;;;;;;;;;5072334;28;20549;-75
2022/12/14 12:12:57;;;;;;;26.43;15.20;;;;;;;;;;5073252;28;20628;-76
2022/12/14 12:16:13;;;;;;;25.33;14.80;;;;;;;;;;5072334;28;20893;-76
2022/12/14 12:19:20;;;;;;;21.67;14.60;;;;;;;;;;5072495;28;20557;-76
2022/12/14 12:22:24;;;;;;;27.33;14.80;;;;;;;;;;5073553;28;20628;-76
2022/12/14 12:25:33;;;;;;;26.20;14.77;;;;;;;;;;5060701;28;20589;-76
2022/12/14 12:28:42;;;;;;;25.73;14.17;;;;;;;;;;5076118;28;20552;-76
2022/12/14 12:31:56;;;;;;;26.33;13.70;;;;;;;;;;5076743;28;20640;-76
2022/12/14 12:35:54;;;;;;;21.47;14.30;;;;;;;;;;5076057;28;20558;-76
2022/12/14 12:39:04;;;;;;;24.63;14.70;;;;;;;;;;5014930;28;20607;-77
2022/12/14 12:42:23;;;;;;;22.20;13.80;;;;;;;;;;5016017;28;20643;-78
2022/12/14 12:45:36;;;;;;;19.87;14.43;;;;;;;;;;5076342;28;20940;-77
2022/12/14 12:48:59;;;;;;;22.23;13.57;;;;;;;;;;5064623;28;20561;-77
2022/12/14 12:52:12;;;;;;;21.33;13.57;;;;;;;;;;5076251;28;21008;-77
2022/12/14 12:55:18;;;;;;;20.97;12.93;;;;;;;;;;5066043;28;21179;-77
2022/12/14 12:58:27;;;;;;;19.63;12.47;;;;;;;;;;5055126;28;20549;-78
2022/12/14 13:01:37;;;;;;;20.10;13.30;;;;;;;;;;5081508;28;20632;-78
2022/12/14 13:04:44;;;;;;;22.17;12.87;;;;;;;;;;5059890;28;20656;-79
2022/12/14 13:08:06;;;;;;;20.73;12.73;;;;;;;;;;5056379;28;21104;-78
2022/12/14 13:11:29;;;;;;;23.83;12.57;;;;;;;;;;5077786;28;20624;-78
2022/12/14 13:14:43;;;;;;;18.47;11.53;;;;;;;;;;5076234;28;20542;-77
2022/12/14 13:17:52;;;;;;;18.43;11.23;;;;;;;;;;5063810;28;20723;-77
2022/12/14 13:21:00;;;;;;;19.20;11.80;;;;;;;;;;5075346;28;20557;-77
2022/12/14 13:24:08;;;;;;;18.50;12.27;;;;;;;;;;5066098;28;20608;-78
2022/12/14 13:27:42;;;;;;;16.53;11.00;;;;;;;;;;5057111;28;20908;-79
2022/12/14 13:31:06;;;;;;;17.20;11.27;;;;;;;;;;5057422;28;20541;-78
2022/12/14 13:34:22;;;;;;;16.67;11.77;;;;;;;;;;5068166;28;20557;-79
2022/12/14 13:37:43;;;;;;;15.40;10.87;;;;;;;;;;5054758;28;21091;-79
2022/12/14 13:41:24;;;;;;;18.73;11.50;;;;;;;;;;5067312;28;21079;-79
2022/12/14 13:44:58;;;;;;;16.17;10.93;;;;;;;;;;5055574;28;20613;-78
2022/12/14 13:48:20;;;;;;;17.27;10.80;;;;;;;;;;5064767;28;20538;-77
2022/12/14 13:51:31;;;;;;;18.23;11.97;;;;;;;;;;5065608;28;20620;-78
2022/12/14 13:54:38;;;;;;;20.07;13.53;;;;;;;;;;5079847;28;21088;-78
2022/12/14 13:57:42;;;;;;;16.70;11.90;;;;;;;;;;5053213;28;20545;-78
2022/12/14 14:00:54;;;;;;;16.60;11.47;;;;;;;;;;5057048;28;20542;-78
2022/12/14 14:04:14;;;;;;;18.87;11.40;;;;;;;;;;5068253;28;20948;-78
2022/12/14 14:07:21;;;;;;;17.20;11.07;;;;;;;;;;5068997;28;20545;-79
2022/12/14 14:10:35;;;;;;;17.10;12.03;;;;;;;;;;5057332;28;20546;-78
2022/12/14 14:13:41;;;;;;;16.40;11.77;;;;;;;;;;5067067;28;20569;-78
2022/12/14 14:16:54;;;;;;;17.23;11.83;;;;;;;;;;5064994;28;21173;-79
2022/12/14 14:20:01;;;;;;;17.53;12.03;;;;;;;;;;5076347;28;21139;-79
2022/12/14 14:23:15;;;;;;;17.37;11.23;;;;;;;;;;5053079;28;20628;-79
2022/12/14 14:26:56;;;;;;;21.97;13.37;;;;;;;;;;5064516;28;20605;-79
2022/12/14 14:30:00;;;;;;;73.00;36.30;;;;;;;;;;5058583;28;20542;-78
2022/12/14 14:33:27;;;;;;;104.93;53.90;;;;;;;;;;5060633;28;20628;-79
2022/12/14 14:36:35;;;;;;;40.47;23.93;;;;;;;;;;5061626;28;20550;-78
2022/12/14 14:39:42;;;;;;;23.10;15.13;;;;;;;;;;5071962;28;21102;-79
2022/12/14 14:42:56;;;;;;;19.83;13.53;;;;;;;;;;5060628;28;20633;-78
2022/12/14 14:46:09;;;;;;;17.70;12.33;;;;;;;;;;5071457;28;20628;-78
2022/12/14 14:49:33;;;;;;;17.97;12.13;;;;;;;;;;5058620;28;20565;-78
2022/12/14 14:52:38;;;;;;;16.37;11.90;;;;;;;;;;5070970;28;20640;-78
2022/12/14 14:56:01;;;;;;;21.50;12.97;;;;;;;;;;5070671;28;20545;-78
2022/12/14 14:59:18;;;;;;;24.47;14.73;;;;;;;;;;5057760;28;20561;-78
2022/12/14 15:02:31;;;;;;;19.90;13.90;;;;;;;;;;5068725;28;21217;-79
2022/12/14 15:05:36;;;;;;;19.90;12.93;;;;;;;;;;5056219;28;21234;-78
2022/12/14 15:09:00;;;;;;;19.70;12.83;;;;;;;;;;5081026;28;20550;-78
2022/12/14 15:12:48;;;;;;;17.30;12.43;;;;;;;;;;5056776;28;20640;-78
2022/12/14 15:15:55;;;;;;;23.53;14.97;;;;;;;;;;5069253;28;20893;-78
2022/12/14 15:19:18;;;;;;;20.93;13.37;;;;;;;;;;5056587;28;20542;-77
2022/12/14 15:22:40;;;;;;;36.70;24.27;;;;;;;;;;5066501;28;20629;-77
2022/12/14 15:25:45;;;;;;;23.60;14.50;;;;;;;;;;5055527;28;20609;-78
2022/12/14 15:28:53;;;;;;;29.23;14.37;;;;;;;;;;5056429;28;20561;-78
2022/12/14 15:32:00;;;;;;;31.43;13.70;;;;;;;;;;5056255;28;20632;-78
2022/12/14 15:35:12;;;;;;;22.93;13.57;;;;;;;;;;5066369;28;20557;-78
2022/12/14 15:38:26;;;;;;;31.40;15.33;;;;;;;;;;5053220;28;20991;-77
2022/12/14 15:41:32;;;;;;;42.13;15.77;;;;;;;;;;5076904;28;20624;-77
2022/12/14 15:44:39;;;;;;;30.47;17.00;;;;;;;;;;5063090;28;21154;-77
2022/12/14 15:47:43;;;;;;;35.67;17.57;;;;;;;;;;5063438;28;20545;-77
2022/12/14 15:50:53;;;;;;;27.93;16.60;;;;;;;;;;5061973;28;20596;-77
2022/12/14 15:54:00;;;;;;;29.87;16.07;;;;;;;;;;5063087;28;20546;-77
2022/12/14 15:57:04;;;;;;;36.77;18.07;;;;;;;;;;5051525;28;20612;-78
2022/12/14 16:00:09;;;;;;;34.20;18.40;;;;;;;;;;5074519;28;20916;-77
2022/12/14 16:03:30;;;;;;;36.43;19.30;;;;;;;;;;5063605;28;21102;-77
2022/12/14 16:06:39;;;;;;;35.43;20.17;;;;;;;;;;5063660;28;20597;-77
2022/12/14 16:09:47;;;;;;;37.03;21.17;;;;;;;;;;5075947;28;20561;-77
2022/12/14 16:12:55;;;;;;;39.07;20.33;;;;;;;;;;5052591;28;20633;-77
2022/12/14 16:16:06;;;;;;;33.83;19.97;;;;;;;;;;5065244;28;20550;-77
2022/12/14 16:19:22;;;;;;;36.13;20.33;;;;;;;;;;5064220;23;20704;-78
2022/12/14 16:22:28;;;;;;;39.13;20.50;;;;;;;;;;5075669;28;20616;-77
2022/12/14 16:25:34;;;;;;;39.97;22.17;;;;;;;;;;5080981;28;20619;-76
2022/12/14 16:28:39;;;;;;;34.93;19.90;;;;;;;;;;5058230;28;20599;-78
2022/12/14 16:31:44;;;;;;;35.70;19.77;;;;;;;;;;5094908;28;20644;-79
2022/12/14 16:34:58;;;;;;;34.17;20.77;;;;;;;;;;5082385;28;20564;-76
2022/12/14 16:38:10;;;;;;;36.93;19.83;;;;;;;;;;5080752;28;21172;-77
2022/12/14 16:41:14;;;;;;;30.50;20.23;;;;;;;;;;5080404;28;20995;-76
2022/12/14 16:44:22;;;;;;;34.07;19.57;;;;;;;;;;5091754;28;20607;-76
2022/12/14 16:48:00;;;;;;;34.20;21.23;;;;;;;;;;5068935;28;20603;-76
2022/12/14 16:51:19;;;;;;;36.07;20.23;;;;;;;;;;5079914;28;20552;-77
2022/12/14 16:54:31;;;;;;;34.13;19.77;;;;;;;;;;5080370;28;20548;-76
2022/12/14 16:57:39;;;;;;;40.43;22.10;;;;;;;;;;5080274;28;20556;-76
2022/12/14 17:00:59;;;;;;;39.47;21.37;;;;;;;;;;5091807;28;20544;-79
2022/12/14 17:04:06;;;;;;;39.73;21.83;;;;;;;;;;5069704;28;21113;-78
2022/12/14 17:07:13;;;;;;;40.10;23.13;;;;;;;;;;5093196;28;20552;-77
2022/12/14 17:10:21;;;;;;;40.83;22.03;;;;;;;;;;5069690;28;20904;-77
2022/12/14 17:13:25;;;;;;;41.33;22.93;;;;;;;;;;5072342;28;20556;-77
2022/12/14 17:16:29;;;;;;;37.73;21.17;;;;;;;;;;5096208;28;20556;-77
2022/12/14 17:19:36;;;;;;;41.17;21.77;;;;;;;;;;5083627;28;20622;-76
2022/12/14 17:22:40;;;;;;;40.30;21.67;;;;;;;;;;5083518;28;20627;-77
2022/12/14 17:25:44;;;;;;;39.13;22.17;;;;;;;;;;5095445;28;20608;-76
2022/12/14 17:28:49;;;;;;;35.80;20.70;;;;;;;;;;5095817;28;20564;-76
2022/12/14 17:31:56;;;;;;;38.03;20.23;;;;;;;;;;5071919;28;20627;-77
2022/12/14 17:35:00;;;;;;;36.30;19.33;;;;;;;;;;5071971;28;20591;-77
2022/12/14 17:38:12;;;;;;;34.57;21.27;;;;;;;;;;5083305;28;20540;-76
2022/12/14 17:41:24;;;;;;;35.60;19.47;;;;;;;;;;5096163;28;21216;-77
2022/12/14 17:44:29;;;;;;;32.20;20.03;;;;;;;;;;5083489;28;20576;-77
2022/12/14 17:47:34;;;;;;;34.30;18.90;;;;;;;;;;5083232;28;20532;-76
2022/12/14 17:50:44;;;;;;;30.83;18.93;;;;;;;;;;5083651;28;20556;-77
2022/12/14 17:53:48;;;;;;;32.37;18.30;;;;;;;;;;5083700;28;20595;-77
2022/12/14 17:56:52;;;;;;;33.13;18.30;;;;;;;;;;5083282;28;20544;-76
2022/12/14 18:03:19;;;;;;;34.17;19.03;;;;;;;;;;5071508;28;20548;-76
2022/12/14 18:06:23;;;;;;;34.40;19.90;;;;;;;;;;5095532;28;20596;-76
2022/12/14 18:09:27;;;;;;;37.90;21.27;;;;;;;;;;5082882;28;21157;-75
2022/12/14 18:12:31;;;;;;;34.97;22.10;;;;;;;;;;5095051;28;21224;-75
2022/12/14 18:15:42;;;;;;;40.90;21.63;;;;;;;;;;5095200;28;20536;-75
2022/12/14 18:18:48;;;;;;;35.93;20.43;;;;;;;;;;5094709;28;20619;-75
2022/12/14 18:21:52;;;;;;;34.33;20.30;;;;;;;;;;5082622;28;21235;-75
2022/12/14 18:24:57;;;;;;;36.03;21.73;;;;;;;;;;5082348;28;20551;-75
2022/12/14 18:28:03;;;;;;;38.90;22.40;;;;;;;;;;5094667;28;20564;-75
2022/12/14 18:31:18;;;;;;;42.27;22.13;;;;;;;;;;5095092;28;20623;-75
2022/12/14 18:34:22;;;;;;;37.30;19.97;;;;;;;;;;5071029;28;21148;-75
2022/12/14 18:37:26;;;;;;;31.17;19.97;;;;;;;;;;5082327;28;20544;-75
2022/12/14 18:40:30;;;;;;;33.53;18.17;;;;;;;;;;5081937;28;20627;-75
2022/12/14 18:43:34;;;;;;;35.00;20.37;;;;;;;;;;5070669;28;20607;-75